Time;durP1;ratioP1;P1;durP2;ratioP2;P2;SDS_P1;SDS_P2;PMS_P1;PMS_P2;Temp;Humidity;BMP_temperature;BMP_pressure;BME280_temperature;BME280_humidity;BME280_pressure;Samples;Min_cycle;Max_cycle;Signal;HPM_P1;HPM_P2
2021/06/01 00:01:32;;;;;;;;;;;;;;;14.53;55.31;99230.13;5109983;28;19943;-50
2021/06/01 00:03:57;;;;;;;;;;;;;;;14.21;56.12;99230.63;5110967;28;19963;-48
2021/06/01 00:06:22;;;;;;;;;;;;;;;14.48;55.61;99193.34;5111151;28;19923;-52
2021/06/01 00:08:48;;;;;;;;;;;;;;;14.83;54.97;99232.53;5090923;28;20364;-50
2021/06/01 00:11:13;;;;;;;;;;;;;;;14.66;55.17;99226.34;5090822;28;19935;-52
2021/06/01 00:13:40;;;;;;;;;;;;;;;14.68;54.39;99226.91;5090834;28;20458;-49
2021/06/01 00:16:05;;;;;;;;;;;;;;;14.40;55.64;99225.88;5093450;28;19935;-51
2021/06/01 00:18:30;;;;;;;;;;;;;;;14.24;56.22;99227.47;5094964;28;19912;-49
2021/06/01 00:20:55;;;;;;;;;;;;;;;13.94;56.60;99219.69;5094717;28;20446;-50
2021/06/01 00:23:21;;;;;;;;;;;;;;;13.71;57.56;99227.75;5109193;28;20016;-48
2021/06/01 00:25:46;;;;;;;;;;;;;;;13.90;56.92;99221.22;5114943;28;19912;-49
2021/06/01 00:28:11;;;;;;;;;;;;;;;14.43;55.89;99225.41;5114613;28;19926;-48
2021/06/01 00:30:37;;;;;;;;;;;;;;;14.36;57.97;99226.59;5114871;28;19935;-49
2021/06/01 00:33:02;;;;;;;;;;;;;;;14.31;56.30;99232.66;5114766;27;19915;-50
2021/06/01 00:35:27;;;;;;;;;;;;;;;14.52;55.87;99227.66;5114549;28;19916;-51
2021/06/01 00:37:53;;;;;;;;;;;;;;;14.43;55.71;99220.03;5114785;28;19915;-51
2021/06/01 00:40:18;;;;;;;;;;;;;;;14.15;56.58;99222.75;5113392;28;19964;-51
2021/06/01 00:42:43;;;;;;;;;;;;;;;14.24;57.80;99232.00;5114842;28;19911;-51
2021/06/01 00:45:09;;;;;;;;;;;;;;;14.14;56.67;99229.13;5114783;28;19920;-51
2021/06/01 00:47:35;;;;;;;;;;;;;;;14.13;58.08;99224.84;5114488;28;20392;-49
2021/06/01 00:50:00;;;;;;;;;;;;;;;14.27;57.36;99226.16;5114462;28;19916;-50
2021/06/01 00:52:25;;;;;;;;;;;;;;;14.30;57.01;99230.22;5114524;28;19912;-51
2021/06/01 00:54:50;;;;;;;;;;;;;;;14.11;56.17;99230.44;5114316;28;20286;-52
2021/06/01 00:57:16;;;;;;;;;;;;;;;14.55;55.88;99228.00;5114431;28;19918;-51
2021/06/01 00:59:41;;;;;;;;;;;;;;;13.98;56.72;99226.16;5114134;28;19916;-52
2021/06/01 01:02:06;;;;;;;;;;;;;;;13.91;56.90;99222.81;5113974;28;20010;-52
2021/06/01 01:04:32;;;;;;;;;;;;;;;14.10;56.53;99222.66;5114169;28;19915;-49
2021/06/01 01:07:13;;;;;;;;;;;;;;;13.79;57.46;99236.22;5114204;28;19965;-51
2021/06/01 01:09:39;;;;;;;;;;;;;;;14.21;59.19;99225.25;5100027;28;20376;-51
2021/06/01 01:12:10;;;;;;;;;;;;;;;14.54;56.89;99228.25;5092484;28;20008;-52
2021/06/01 01:14:39;;;;;;;;;;;;;;;14.38;55.85;99225.31;5093622;28;19951;-49
2021/06/01 01:17:04;;;;;;;;;;;;;;;14.33;55.90;99225.19;5092364;28;19935;-49
2021/06/01 01:19:30;;;;;;;;;;;;;;;14.43;56.57;99217.38;5093560;28;20372;-50
2021/06/01 01:21:55;;;;;;;;;;;;;;;14.81;55.50;99218.56;5096351;28;19961;-50
2021/06/01 01:24:34;;;;;;;;;;;;;;;14.97;54.58;99208.88;5112663;28;19912;-50
2021/06/01 01:27:05;;;;;;;;;;;;;;;14.86;56.61;99207.91;5112246;28;20374;-48
2021/06/01 01:29:43;;;;;;;;;;;;;;;14.74;56.70;99204.50;5113919;28;19919;-53
2021/06/01 01:32:24;;;;;;;;;;;;;;;14.86;55.51;99215.94;5112459;28;20280;-49
2021/06/01 01:34:49;;;;;;;;;;;;;;;14.40;55.09;99175.00;5113795;28;19912;-49
2021/06/01 01:37:15;;;;;;;;;;;;;;;14.71;55.10;99204.19;5112409;28;19919;-49
2021/06/01 01:39:46;;;;;;;;;;;;;;;14.96;54.89;99217.16;5093097;28;19919;-49
2021/06/01 01:42:12;;;;;;;;;;;;;;;14.80;54.35;99214.25;5091877;28;20371;-51
2021/06/01 01:44:47;;;;;;;;;;;;;;;14.21;56.38;99217.22;5092144;28;19919;-50
2021/06/01 01:49:56;;;;;;;;;;;;;;;14.03;56.96;99212.06;5093052;28;19919;-49
2021/06/01 01:52:22;;;;;;;;;;;;;;;14.18;56.80;99212.34;5091711;28;20003;-49
2021/06/01 01:54:47;;;;;;;;;;;;;;;13.80;57.56;99211.13;5091845;28;20364;-51
2021/06/01 01:57:13;;;;;;;;;;;;;;;14.37;57.11;99212.94;5092934;28;19916;-49
2021/06/01 01:59:39;;;;;;;;;;;;;;;14.33;56.20;99211.81;5091125;28;19912;-50
2021/06/01 02:02:08;;;;;;;;;;;;;;;14.65;56.81;99208.66;5092058;28;20428;-50
2021/06/01 02:04:33;;;;;;;;;;;;;;;14.07;56.21;99210.56;5091114;28;20425;-49
2021/06/01 02:06:58;;;;;;;;;;;;;;;14.25;56.09;99209.53;5091099;28;19920;-50
2021/06/01 02:09:23;;;;;;;;;;;;;;;14.28;56.30;99207.19;5092331;28;19912;-48
2021/06/01 02:11:49;;;;;;;;;;;;;;;14.43;55.99;99203.97;5092793;28;19924;-49
2021/06/01 02:14:14;;;;;;;;;;;;;;;14.08;55.88;99196.94;5092434;28;19916;-48
2021/06/01 02:16:41;;;;;;;;;;;;;;;13.93;56.67;99193.16;5090819;28;19936;-50
2021/06/01 02:19:07;;;;;;;;;;;;;;;14.20;56.02;99196.91;5092460;28;20010;-48
2021/06/01 02:24:09;;;;;;;;;;;;;;;14.15;56.57;99201.34;5071857;28;20674;-48
2021/06/01 02:26:38;;;;;;;;;;;;;;;14.21;55.77;99200.38;5104323;28;19916;-48
2021/06/01 02:29:06;;;;;;;;;;;;;;;14.25;55.90;99199.63;5071847;28;19913;-48
2021/06/01 02:31:33;;;;;;;;;;;;;;;14.13;55.82;99188.19;5072648;28;19912;-50
2021/06/01 02:33:59;;;;;;;;;;;;;;;14.09;56.30;99192.41;5072856;28;20001;-49
2021/06/01 02:36:24;;;;;;;;;;;;;;;13.80;57.67;99192.41;5104851;28;19974;-50
2021/06/01 02:38:50;;;;;;;;;;;;;;;14.01;56.63;99188.25;5072078;28;19995;-49
2021/06/01 02:41:15;;;;;;;;;;;;;;;13.77;56.91;99187.53;5072642;28;19912;-49
2021/06/01 02:43:40;;;;;;;;;;;;;;;13.78;56.40;99193.69;5072257;28;19974;-48
2021/06/01 02:46:06;;;;;;;;;;;;;;;13.80;57.21;99184.38;5104678;28;19919;-51
2021/06/01 02:48:31;;;;;;;;;;;;;;;13.37;57.54;99190.19;5105183;28;19912;-48
2021/06/01 02:50:57;;;;;;;;;;;;;;;13.75;56.85;99186.16;5072068;28;19919;-51
2021/06/01 02:53:23;;;;;;;;;;;;;;;13.64;57.02;99187.78;5072278;28;19916;-48
2021/06/01 02:55:48;;;;;;;;;;;;;;;13.46;57.39;99186.91;5072142;28;20240;-48
2021/06/01 02:58:14;;;;;;;;;;;;;;;13.34;57.12;99196.00;5104622;28;19952;-48
2021/06/01 03:00:39;;;;;;;;;;;;;;;13.92;56.69;99188.84;5071952;28;19920;-51
2021/06/01 03:03:05;;;;;;;;;;;;;;;13.66;58.83;99197.19;5071829;28;19916;-51
2021/06/01 03:05:30;;;;;;;;;;;;;;;13.74;59.54;99197.88;5071307;28;20287;-50
2021/06/01 03:07:56;;;;;;;;;;;;;;;13.91;56.05;99195.25;5103602;28;20367;-48
2021/06/01 03:10:23;;;;;;;;;;;;;;;14.18;54.85;99192.81;5123563;27;19955;-49
2021/06/01 03:13:00;;;;;;;;;;;;;;;14.10;54.96;99187.84;5091273;28;19916;-47
2021/06/01 03:15:26;;;;;;;;;;;;;;;13.83;55.61;99183.91;5090810;28;20026;-48
2021/06/01 03:17:51;;;;;;;;;;;;;;;13.77;55.81;99190.19;5091506;28;20002;-51
2021/06/01 03:20:16;;;;;;;;;;;;;;;13.78;56.79;99181.13;5091394;28;20019;-50
2021/06/01 03:22:42;;;;;;;;;;;;;;;13.68;56.31;99179.06;5099265;28;20115;-51
2021/06/01 03:25:07;;;;;;;;;;;;;;;14.00;56.22;99189.28;5112172;28;19911;-50
2021/06/01 03:27:32;;;;;;;;;;;;;;;14.28;54.57;99180.44;5111530;28;19975;-51
2021/06/01 03:29:58;;;;;;;;;;;;;;;14.28;57.38;99193.00;5111666;28;19951;-51
2021/06/01 03:32:23;;;;;;;;;;;;;;;14.24;55.05;99187.31;5111462;28;19916;-50
2021/06/01 03:34:48;;;;;;;;;;;;;;;14.22;55.01;99175.22;5111418;28;19911;-49
2021/06/01 03:37:13;;;;;;;;;;;;;;;14.06;56.45;99188.31;5111183;28;19911;-49
2021/06/01 03:39:39;;;;;;;;;;;;;;;14.33;55.66;99185.06;5111406;28;19918;-49
2021/06/01 03:42:06;;;;;;;;;;;;;;;14.36;54.69;99183.78;5111176;28;19969;-51
2021/06/01 03:44:31;;;;;;;;;;;;;;;14.74;54.12;99179.59;5111091;28;20014;-49
2021/06/01 03:46:56;;;;;;;;;;;;;;;14.75;53.60;99187.38;5110834;28;20406;-49
2021/06/01 03:49:21;;;;;;;;;;;;;;;14.75;54.00;99182.00;5111106;28;19911;-49
2021/06/01 03:51:47;;;;;;;;;;;;;;;15.31;53.10;99183.91;5110841;28;19969;-48
2021/06/01 03:54:12;;;;;;;;;;;;;;;15.67;52.01;99192.38;5110722;28;20271;-49
2021/06/01 03:56:37;;;;;;;;;;;;;;;16.20;51.72;99188.13;5110266;28;19916;-51
2021/06/01 03:59:03;;;;;;;;;;;;;;;16.24;51.30;99189.28;5110714;28;19931;-53
2021/06/01 04:01:29;;;;;;;;;;;;;;;15.74;51.01;99190.34;5110449;28;20086;-52
2021/06/01 04:03:54;;;;;;;;;;;;;;;16.39;50.60;99194.78;5110614;28;20517;-51
2021/06/01 04:06:19;;;;;;;;;;;;;;;16.23;49.24;99198.38;5110764;28;19911;-50
2021/06/01 04:08:45;;;;;;;;;;;;;;;16.72;49.11;99205.53;5110631;28;20011;-52
2021/06/01 04:11:10;;;;;;;;;;;;;;;17.51;46.94;99201.19;5110428;28;19911;-57
2021/06/01 04:13:35;;;;;;;;;;;;;;;18.21;46.31;99207.09;5110421;28;19951;-51
2021/06/01 04:16:00;;;;;;;;;;;;;;;18.30;45.51;99197.41;5110544;28;19931;-51
2021/06/01 04:18:26;;;;;;;;;;;;;;;18.19;44.93;99189.59;5110635;28;19939;-49
2021/06/01 04:20:51;;;;;;;;;;;;;;;18.82;44.64;99190.19;5109695;28;19919;-52
2021/06/01 04:23:16;;;;;;;;;;;;;;;19.56;43.41;99195.13;5108138;28;20435;-49
2021/06/01 04:25:42;;;;;;;;;;;;;;;20.18;41.62;99185.66;5089910;28;19919;-52
2021/06/01 04:28:07;;;;;;;;;;;;;;;19.88;42.26;99198.25;5089923;28;19916;-50
2021/06/01 04:30:32;;;;;;;;;;;;;;;19.85;43.21;99190.69;5090104;28;20007;-51
2021/06/01 04:32:58;;;;;;;;;;;;;;;20.33;40.74;99189.34;5090140;28;20347;-51
2021/06/01 04:35:23;;;;;;;;;;;;;;;20.60;41.08;99191.59;5088942;28;19912;-52
2021/06/01 04:37:48;;;;;;;;;;;;;;;21.23;39.88;99193.44;5089347;28;19912;-51
2021/06/01 04:40:15;;;;;;;;;;;;;;;21.10;39.24;99194.94;5089705;28;19919;-52
2021/06/01 04:42:40;;;;;;;;;;;;;;;21.49;39.60;99196.69;5089579;28;20189;-49
2021/06/01 04:45:06;;;;;;;;;;;;;;;21.86;37.79;99193.25;5089787;28;19962;-48
2021/06/01 04:47:31;;;;;;;;;;;;;;;21.50;40.00;99198.31;5088386;28;20391;-50
2021/06/01 04:49:57;;;;;;;;;;;;;;;21.96;37.70;99194.19;5089713;28;19916;-52
2021/06/01 04:52:22;;;;;;;;;;;;;;;22.49;37.56;99191.28;5089336;28;19916;-51
2021/06/01 04:54:47;;;;;;;;;;;;;;;22.55;37.65;99184.66;5088038;28;20027;-51
2021/06/01 04:57:12;;;;;;;;;;;;;;;22.93;35.52;99194.59;5086521;28;19916;-52
2021/06/01 04:59:38;;;;;;;;;;;;;;;22.65;36.21;99186.38;5087879;28;19977;-52
2021/06/01 05:02:03;;;;;;;;;;;;;;;23.09;35.83;99197.88;5090409;28;19912;-51
2021/06/01 05:04:29;;;;;;;;;;;;;;;22.48;36.15;99196.97;5091686;28;20006;-49
2021/06/01 05:06:57;;;;;;;;;;;;;;;21.36;38.02;99198.16;5091368;28;19923;-49
2021/06/01 05:09:25;;;;;;;;;;;;;;;22.25;37.26;99196.78;5088583;28;20114;-49
2021/06/01 05:11:50;;;;;;;;;;;;;;;21.94;36.82;99189.06;5072431;28;20338;-52
2021/06/01 05:14:15;;;;;;;;;;;;;;;21.86;37.61;99195.94;5072920;28;19977;-50
2021/06/01 05:16:41;;;;;;;;;;;;;;;21.75;37.34;99201.78;5073434;28;19921;-50
2021/06/01 05:19:06;;;;;;;;;;;;;;;21.36;37.73;99195.47;5072728;28;19989;-49
2021/06/01 05:21:31;;;;;;;;;;;;;;;21.63;38.04;99188.69;5072912;28;19912;-49
2021/06/01 05:23:58;;;;;;;;;;;;;;;21.81;38.26;99197.91;5111900;28;20346;-49
2021/06/01 05:26:24;;;;;;;;;;;;;;;22.76;36.74;99200.59;5113547;28;19911;-49
2021/06/01 05:28:49;;;;;;;;;;;;;;;21.95;37.60;99204.25;5113051;28;19964;-49
2021/06/01 05:33:54;;;;;;;;;;;;;;;22.04;37.54;99193.53;5113275;28;19918;-48
2021/06/01 05:36:19;;;;;;;;;;;;;;;22.78;36.59;99201.91;5113497;28;19916;-51
2021/06/01 05:38:45;;;;;;;;;;;;;;;22.01;38.61;99192.22;5112788;28;19937;-51
2021/06/01 05:41:10;;;;;;;;;;;;;;;22.42;37.01;99190.84;5113332;28;19912;-48
2021/06/01 05:43:36;;;;;;;;;;;;;;;22.12;37.66;99190.16;5112757;28;19912;-47
2021/06/01 05:46:01;;;;;;;;;;;;;;;22.19;37.92;99196.03;5113154;28;20003;-49
2021/06/01 05:48:27;;;;;;;;;;;;;;;22.52;37.33;99187.94;5112374;28;20451;-49
2021/06/01 05:50:52;;;;;;;;;;;;;;;22.76;37.35;99190.53;5112994;28;19912;-50
2021/06/01 05:53:19;;;;;;;;;;;;;;;22.75;37.04;99196.25;5111434;28;19961;-51
2021/06/01 05:55:45;;;;;;;;;;;;;;;22.74;36.49;99181.91;5113256;28;19940;-50
2021/06/01 05:58:10;;;;;;;;;;;;;;;22.14;37.34;99190.69;5113394;28;19954;-49
2021/06/01 06:00:36;;;;;;;;;;;;;;;22.79;37.20;99191.84;5112729;28;19912;-48
2021/06/01 06:03:01;;;;;;;;;;;;;;;23.82;36.22;99198.91;5112364;28;19911;-49
2021/06/01 06:05:26;;;;;;;;;;;;;;;23.72;35.41;99205.31;5112796;28;19916;-49
2021/06/01 06:07:52;;;;;;;;;;;;;;;23.55;35.75;99210.53;5112724;28;19919;-50
2021/06/01 06:10:17;;;;;;;;;;;;;;;22.95;36.49;99195.91;5112744;28;20358;-49
2021/06/01 06:12:42;;;;;;;;;;;;;;;22.96;36.42;99194.00;5110058;28;20046;-49
2021/06/01 06:15:11;;;;;;;;;;;;;;;23.14;36.54;99195.06;5112348;28;20012;-49
2021/06/01 06:17:38;;;;;;;;;;;;;;;23.05;36.98;99194.16;5112211;28;20387;-49
2021/06/01 06:20:04;;;;;;;;;;;;;;;22.86;36.95;99194.19;5112354;28;19924;-49
2021/06/01 06:22:30;;;;;;;;;;;;;;;23.76;36.22;99192.75;5110414;28;19912;-51
2021/06/01 06:24:55;;;;;;;;;;;;;;;24.93;33.71;99171.28;5112056;28;19947;-51
2021/06/01 06:27:20;;;;;;;;;;;;;;;25.06;34.30;99207.69;5112126;28;20318;-51
2021/06/01 06:29:45;;;;;;;;;;;;;;;24.10;34.85;99198.81;5110112;28;19969;-51
2021/06/01 06:32:11;;;;;;;;;;;;;;;24.69;33.85;99196.09;5111417;28;20037;-50
2021/06/01 06:34:36;;;;;;;;;;;;;;;24.36;35.72;99196.31;5111887;28;20055;-50
2021/06/01 06:37:02;;;;;;;;;;;;;;;24.56;34.07;99190.44;5111247;28;19915;-52
2021/06/01 06:39:27;;;;;;;;;;;;;;;23.28;36.11;99198.59;5111278;28;20041;-50
2021/06/01 06:41:52;;;;;;;;;;;;;;;23.28;36.26;99195.88;5110136;28;19926;-49
2021/06/01 06:44:19;;;;;;;;;;;;;;;23.76;35.58;99205.50;5111334;28;19912;-50
2021/06/01 06:46:52;;;;;;;;;;;;;;;23.13;36.68;99188.03;5111601;28;19927;-48
2021/06/01 06:49:17;;;;;;;;;;;;;;;23.98;35.76;99197.44;5111393;28;19911;-50
2021/06/01 06:51:42;;;;;;;;;;;;;;;24.90;34.41;99190.94;5109878;28;19996;-49
2021/06/01 06:54:07;;;;;;;;;;;;;;;25.30;33.57;99188.25;5110916;28;19912;-49
2021/06/01 06:56:33;;;;;;;;;;;;;;;25.86;33.31;99186.66;5110258;28;20352;-50
2021/06/01 06:58:58;;;;;;;;;;;;;;;25.23;33.79;99194.19;5110514;28;20018;-50
2021/06/01 07:01:24;;;;;;;;;;;;;;;25.67;33.65;99186.16;5111196;28;19915;-49
2021/06/01 07:03:49;;;;;;;;;;;;;;;24.70;34.86;99187.63;5110903;28;20021;-48
2021/06/01 07:06:15;;;;;;;;;;;;;;;23.94;36.13;99190.22;5110600;28;20342;-51
2021/06/01 07:08:40;;;;;;;;;;;;;;;23.84;36.50;99196.69;5110697;28;19990;-51
2021/06/01 07:11:05;;;;;;;;;;;;;;;23.84;36.90;99193.97;5110645;28;19912;-50
2021/06/01 07:13:40;;;;;;;;;;;;;;;24.27;36.05;99187.28;5110729;28;19912;-49
2021/06/01 07:16:05;;;;;;;;;;;;;;;24.20;35.38;99191.25;5110358;28;19927;-49
2021/06/01 07:18:31;;;;;;;;;;;;;;;24.01;35.64;99190.63;5110608;28;19911;-49
2021/06/01 07:21:00;;;;;;;;;;;;;;;24.28;35.57;99195.16;5110761;28;20007;-50
2021/06/01 07:23:25;;;;;;;;;;;;;;;22.55;38.48;99183.88;5110243;28;19927;-49
2021/06/01 07:25:50;;;;;;;;;;;;;;;23.84;36.75;99190.44;5110504;28;20010;-50
2021/06/01 07:28:16;;;;;;;;;;;;;;;23.81;35.54;99192.66;5110615;28;19915;-49
2021/06/01 07:30:41;;;;;;;;;;;;;;;23.65;36.66;99201.41;5110235;28;20272;-49
2021/06/01 07:33:06;;;;;;;;;;;;;;;23.68;36.29;99184.50;5110308;28;20090;-48
2021/06/01 07:35:31;;;;;;;;;;;;;;;23.84;35.74;99183.09;5109068;28;20276;-51
2021/06/01 07:37:57;;;;;;;;;;;;;;;24.15;33.82;99190.56;5110232;28;19916;-51
2021/06/01 07:40:22;;;;;;;;;;;;;;;24.06;34.41;99192.41;5110347;28;19912;-48
2021/06/01 07:42:47;;;;;;;;;;;;;;;23.96;34.47;99182.56;5110496;28;19992;-49
2021/06/01 07:45:13;;;;;;;;;;;;;;;24.37;34.21;99184.34;5110152;28;20066;-50
2021/06/01 07:47:38;;;;;;;;;;;;;;;24.11;34.04;99182.22;5110119;28;19923;-49
2021/06/01 07:50:04;;;;;;;;;;;;;;;25.16;32.88;99185.63;5110653;28;19969;-49
2021/06/01 07:52:29;;;;;;;;;;;;;;;25.60;31.44;99183.88;5110245;28;19961;-50
2021/06/01 07:54:56;;;;;;;;;;;;;;;25.28;32.32;99183.13;5110475;28;20010;-49
2021/06/01 07:57:21;;;;;;;;;;;;;;;25.56;31.35;99180.97;5110361;28;19916;-49
2021/06/01 07:59:46;;;;;;;;;;;;;;;25.05;32.01;99179.66;5109909;28;20316;-49
2021/06/01 08:02:12;;;;;;;;;;;;;;;24.78;32.54;99181.44;5110353;28;20370;-51
2021/06/01 08:04:37;;;;;;;;;;;;;;;25.13;32.48;99188.97;5110579;28;19912;-49
2021/06/01 08:07:05;;;;;;;;;;;;;;;24.47;33.56;99186.81;5110741;28;20367;-51
2021/06/01 08:09:31;;;;;;;;;;;;;;;24.69;33.89;99182.50;5110939;28;19916;-51
2021/06/01 08:11:56;;;;;;;;;;;;;;;24.93;33.21;99182.94;5110370;28;20312;-51
2021/06/01 08:14:21;;;;;;;;;;;;;;;25.11;32.91;99188.47;5110544;28;19923;-49
2021/06/01 08:16:47;;;;;;;;;;;;;;;25.03;33.41;99183.81;5110264;28;20435;-48
2021/06/01 08:19:19;;;;;;;;;;;;;;;24.80;33.65;99178.41;5110445;28;20450;-48
2021/06/01 08:24:15;;;;;;;;;;;;;;;24.32;34.19;99198.84;5110925;28;19911;-49
2021/06/01 08:26:40;;;;;;;;;;;;;;;24.50;34.02;99188.09;5110622;28;19939;-50
2021/06/01 08:29:06;;;;;;;;;;;;;;;23.83;34.04;99183.41;5110606;28;19965;-48
2021/06/01 08:31:31;;;;;;;;;;;;;;;24.55;33.84;99199.69;5110586;28;19954;-50
2021/06/01 08:33:57;;;;;;;;;;;;;;;25.10;32.77;99189.59;5110631;28;19918;-48
2021/06/01 08:36:23;;;;;;;;;;;;;;;24.29;34.17;99182.34;5112107;28;20359;-49
2021/06/01 08:38:48;;;;;;;;;;;;;;;24.65;33.48;99197.84;5114361;28;19961;-50
2021/06/01 08:41:16;;;;;;;;;;;;;;;24.63;33.65;99183.75;5114174;28;19920;-48
2021/06/01 08:43:41;;;;;;;;;;;;;;;25.05;33.56;99189.72;5114398;28;19911;-50
2021/06/01 08:46:08;;;;;;;;;;;;;;;25.02;33.10;99174.03;5114293;28;19934;-48
2021/06/01 08:48:34;;;;;;;;;;;;;;;25.25;32.44;99172.88;5114426;28;20010;-49
2021/06/01 08:50:59;;;;;;;;;;;;;;;24.98;34.00;99182.81;5112849;28;20439;-51
2021/06/01 08:53:25;;;;;;;;;;;;;;;24.94;32.34;99175.59;5113721;28;19912;-49
2021/06/01 08:55:50;;;;;;;;;;;;;;;23.94;33.38;99168.47;5113906;28;20311;-49
2021/06/01 08:58:16;;;;;;;;;;;;;;;24.43;33.61;99174.13;5113480;28;19999;-49
2021/06/01 09:00:42;;;;;;;;;;;;;;;24.39;32.41;99166.59;5113959;28;19926;-48
2021/06/01 09:03:07;;;;;;;;;;;;;;;23.95;33.25;99165.47;5114348;28;19911;-49
2021/06/01 09:05:33;;;;;;;;;;;;;;;24.55;32.63;99163.53;5113542;28;19964;-51
2021/06/01 09:08:06;;;;;;;;;;;;;;;23.73;33.27;99160.75;5097555;28;19916;-50
2021/06/01 09:10:57;;;;;;;;;;;;;;;23.96;34.49;99171.69;5093320;28;19912;-52
2021/06/01 09:21:46;;;;;;;;;;;;;;;24.13;33.02;99166.41;5093509;28;19923;-51
2021/06/01 09:24:11;;;;;;;;;;;;;;;23.47;34.61;99171.34;5072663;28;19963;-49
2021/06/01 09:27:31;;;;;;;;;;;;;;;23.98;34.88;99161.31;5072589;28;19913;-50
2021/06/01 09:29:48;;;;;;;;;;;;;;;24.36;33.78;99163.69;5072279;28;20007;-50
2021/06/01 09:32:16;;;;;;;;;;;;;;;24.58;34.04;99162.94;5072700;28;20322;-50
2021/06/01 09:34:41;;;;;;;;;;;;;;;24.18;34.28;99173.66;5072645;28;19916;-48
2021/06/01 09:37:23;;;;;;;;;;;;;;;23.62;35.09;99172.94;5072454;28;19912;-50
2021/06/01 09:40:07;;;;;;;;;;;;;;;24.56;33.59;99159.69;5072497;28;20000;-48
2021/06/01 09:42:32;;;;;;;;;;;;;;;24.57;33.31;99164.03;5072626;28;19919;-49
2021/06/01 09:45:04;;;;;;;;;;;;;;;24.35;33.94;99164.81;5072193;28;20304;-52
2021/06/01 09:47:45;;;;;;;;;;;;;;;24.25;35.19;99165.06;5071791;28;19917;-50
2021/06/01 09:50:19;;;;;;;;;;;;;;;24.40;33.37;99154.59;5071526;28;19913;-51
2021/06/01 09:52:46;;;;;;;;;;;;;;;24.19;34.25;99156.22;5071658;28;19947;-49
2021/06/01 09:55:15;;;;;;;;;;;;;;;24.28;34.45;99156.28;5072220;28;20303;-52
2021/06/01 09:57:44;;;;;;;;;;;;;;;24.34;34.06;99153.13;5072362;28;20336;-50
2021/06/01 10:00:19;;;;;;;;;;;;;;;24.35;33.05;99152.03;5071985;28;20030;-47
2021/06/01 10:02:49;;;;;;;;;;;;;;;24.38;32.17;99151.41;5071889;28;19924;-50
2021/06/01 10:05:24;;;;;;;;;;;;;;;23.78;32.59;99148.97;5071425;28;19989;-50
2021/06/01 10:07:50;;;;;;;;;;;;;;;24.40;32.81;99145.66;5071780;28;19927;-48
2021/06/01 10:10:16;;;;;;;;;;;;;;;25.11;31.35;99156.63;5071857;28;19912;-50
2021/06/01 10:12:43;;;;;;;;;;;;;;;24.93;31.42;99154.94;5071351;28;19920;-48
2021/06/01 10:15:08;;;;;;;;;;;;;;;24.55;32.35;99155.38;5104044;28;20007;-48
2021/06/01 10:17:34;;;;;;;;;;;;;;;24.62;33.65;99152.22;5071222;28;20065;-50
2021/06/01 10:19:59;;;;;;;;;;;;;;;25.56;32.22;99152.94;5071307;28;19923;-48
2021/06/01 10:22:24;;;;;;;;;;;;;;;24.73;33.11;99150.84;5085223;28;19912;-49
2021/06/01 10:24:50;;;;;;;;;;;;;;;25.09;30.99;99149.88;5112145;28;20373;-49
2021/06/01 10:27:15;;;;;;;;;;;;;;;24.13;31.26;99154.75;5110605;28;19915;-50
2021/06/01 10:29:40;;;;;;;;;;;;;;;24.04;32.44;99162.00;5111696;28;19922;-49
2021/06/01 10:32:06;;;;;;;;;;;;;;;23.63;33.03;99163.69;5110669;28;20033;-50
2021/06/01 10:34:31;;;;;;;;;;;;;;;23.90;33.81;99159.34;5112176;28;20431;-50
2021/06/01 10:53:49;;;;;;;;;;;;;;;23.35;33.26;99149.34;5111473;28;19919;-52
2021/06/01 10:56:08;;;;;;;;;;;;;;;23.93;32.83;99145.94;5107992;28;19953;-50
2021/06/01 10:58:34;;;;;;;;;;;;;;;23.75;34.27;99157.72;5110953;28;19916;-51
2021/06/01 11:04:12;;;;;;;;;;;;;;;24.09;35.21;99148.31;5110809;28;20003;-50
2021/06/01 11:09:38;;;;;;;;;;;;;;;24.11;35.01;99136.00;5107501;28;20371;-50
2021/06/01 11:12:12;;;;;;;;;;;;;;;24.65;34.72;99138.78;5111123;28;19920;-52
2021/06/01 11:14:37;;;;;;;;;;;;;;;24.11;35.36;99136.00;5111424;28;19926;-49
2021/06/01 11:17:03;;;;;;;;;;;;;;;24.26;34.43;99137.56;5111174;28;20010;-49
2021/06/01 11:19:51;;;;;;;;;;;;;;;23.97;35.55;99138.78;5110656;28;19923;-51
2021/06/01 11:22:24;;;;;;;;;;;;;;;23.38;35.66;99129.72;5111030;28;19927;-50
2021/06/01 11:33:18;;;;;;;;;;;;;;;23.63;35.32;99120.25;5110860;28;19919;-49
2021/06/01 11:35:47;;;;;;;;;;;;;;;22.84;35.08;99124.75;5110896;28;19912;-51
2021/06/01 11:43:13;;;;;;;;;;;;;;;23.40;35.23;99141.09;5110894;28;19919;-51
2021/06/01 11:46:23;;;;;;;;;;;;;;;23.70;33.15;99126.03;5110603;28;19916;-49
2021/06/01 11:51:18;;;;;;;;;;;;;;;24.32;33.70;99121.94;5110448;28;19962;-49
2021/06/01 11:54:04;;;;;;;;;;;;;;;24.03;33.51;99084.31;5110465;28;19953;-49
2021/06/01 11:56:38;;;;;;;;;;;;;;;24.08;32.94;99131.19;5110813;28;20458;-51
2021/06/01 12:20:41;;;;;;;;;;;;;;;24.52;33.53;99124.19;5114563;28;19972;-50
2021/06/01 12:23:25;;;;;;;;;;;;;;;24.00;34.37;99135.44;5113421;28;19915;-51
2021/06/01 12:31:58;;;;;;;;;;;;;;;21.85;37.48;99150.19;5114235;28;20417;-50
2021/06/01 12:34:39;;;;;;;;;;;;;;;21.71;37.63;99149.31;5114388;28;19912;-51
2021/06/01 12:45:24;;;;;;;;;;;;;;;21.71;38.80;99155.53;5114339;28;19998;-50
2021/06/01 13:20:08;;;;;;;;;;;;;;;21.22;40.53;99186.41;5093038;28;19935;-49
2021/06/01 13:22:50;;;;;;;;;;;;;;;21.23;41.62;99194.25;5100897;28;20259;-49
2021/06/01 13:47:11;;;;;;;;;;;;;;;20.91;39.90;99175.09;5113426;28;20382;-52
2021/06/01 13:49:40;;;;;;;;;;;;;;;21.14;39.08;99173.53;5113188;28;20384;-49
2021/06/01 13:52:29;;;;;;;;;;;;;;;21.24;39.11;99179.59;5113150;28;19947;-50
2021/06/01 14:21:46;;;;;;;;;;;;;;;21.20;40.00;99215.66;5112580;28;19969;-52
2021/06/01 14:29:53;;;;;;;;;;;;;;;20.96;41.48;99219.13;5112276;28;19969;-50
2021/06/01 14:38:03;;;;;;;;;;;;;;;21.22;41.36;99222.38;5111841;28;19934;-52
2021/06/01 15:49:59;;;;;;;;;;;;;;;19.51;42.42;99223.75;5077612;28;20410;-51
2021/06/01 16:43:35;;;;;;;;;;;;;;;17.69;46.96;99294.91;5089782;28;20012;-39
2021/06/01 17:05:28;;;;;;;;;;;;;;;17.41;48.31;99301.47;5094436;28;19989;-52
2021/06/01 17:10:58;;;;;;;;;;;;;;;17.46;49.36;99306.91;5093574;28;19919;-51
2021/06/01 17:13:23;;;;;;;;;;;;;;;17.92;48.70;99301.78;5121592;27;20023;-47
2021/06/01 17:15:50;;;;;;;;;;;;;;;18.27;47.66;99310.25;5126319;27;20368;-49
2021/06/01 17:36:50;;;;;;;;;;;;;;;17.76;49.95;99343.09;5090041;28;19974;-49
2021/06/01 17:39:15;;;;;;;;;;;;;;;17.91;49.57;99348.59;5083713;28;20049;-37
2021/06/01 17:41:40;;;;;;;;;;;;;;;17.75;49.03;99342.31;5093153;28;19998;-36
2021/06/01 17:44:06;;;;;;;;;;;;;;;17.61;49.67;99351.09;5093402;28;20224;-38
2021/06/01 17:46:33;;;;;;;;;;;;;;;17.74;49.28;99347.94;5091961;28;19912;-37
2021/06/01 17:48:59;;;;;;;;;;;;;;;17.98;48.44;99346.50;5093079;28;19916;-36
2021/06/01 17:51:25;;;;;;;;;;;;;;;18.17;52.50;99354.13;5091342;28;20344;-37
2021/06/01 17:53:50;;;;;;;;;;;;;;;18.74;47.25;99353.22;5093292;28;19912;-37
2021/06/01 17:56:17;;;;;;;;;;;;;;;18.84;47.66;99363.22;5092897;28;20244;-38
2021/06/01 17:58:42;;;;;;;;;;;;;;;19.03;46.00;99366.22;5092674;28;19912;-38
2021/06/01 18:01:07;;;;;;;;;;;;;;;18.80;48.61;99369.41;5092729;28;19918;-37
2021/06/01 18:03:35;;;;;;;;;;;;;;;18.77;46.88;99376.13;5092159;28;19939;-37
2021/06/01 18:06:01;;;;;;;;;;;;;;;18.82;45.85;99372.66;5092348;28;20287;-38
2021/06/01 18:09:50;;;;;;;;;;;;;;;19.14;45.53;99367.84;5091028;28;19916;-38
2021/06/01 19:25:11;;;;;;;;;;;;;;;16.85;52.07;99494.50;5090951;28;19919;-49
2021/06/01 19:28:15;;;;;;;;;;;;;;;16.96;51.66;99497.09;5090680;28;20001;-49
2021/06/01 19:52:13;;;;;;;;;;;;;;;16.66;52.19;99520.84;5090295;28;20505;-48
2021/06/01 19:54:38;;;;;;;;;;;;;;;16.28;52.78;99517.94;5090472;28;20006;-48
2021/06/01 19:57:04;;;;;;;;;;;;;;;16.77;51.31;99519.91;5090346;28;19912;-50
2021/06/01 19:59:29;;;;;;;;;;;;;;;16.65;52.24;99527.28;5088321;28;19912;-52
2021/06/01 20:01:55;;;;;;;;;;;;;;;16.44;52.71;99518.94;5090121;28;20323;-51
2021/06/01 20:04:20;;;;;;;;;;;;;;;16.66;51.78;99527.06;5089880;28;19962;-49
2021/06/01 20:06:45;;;;;;;;;;;;;;;16.54;51.78;99527.13;5090710;28;19916;-49
2021/06/01 20:09:11;;;;;;;;;;;;;;;16.27;53.14;99526.22;5088989;28;20381;-48
2021/06/01 20:11:36;;;;;;;;;;;;;;;16.36;52.90;99536.28;5090075;28;19913;-49